createdAt,value
2024-01-18T00:00:22.000Z,994.62
2024-01-18T00:01:22.000Z,994.72
2024-01-18T00:02:22.000Z,994.73
2024-01-18T00:03:22.000Z,994.77
2024-01-18T00:04:23.000Z,994.82
2024-01-18T00:05:23.000Z,994.85
2024-01-18T00:06:23.000Z,994.82
2024-01-18T00:07:23.000Z,994.83
2024-01-18T00:08:24.000Z,994.88
2024-01-18T00:09:24.000Z,994.85
2024-01-18T00:10:24.000Z,994.86
2024-01-18T00:11:24.000Z,994.81
2024-01-18T00:12:25.000Z,994.8
2024-01-18T00:13:25.000Z,994.79
2024-01-18T00:14:25.000Z,994.75
2024-01-18T00:15:25.000Z,994.82
2024-01-18T00:16:26.000Z,994.79
2024-01-18T00:17:26.000Z,994.81
2024-01-18T00:18:26.000Z,994.86
2024-01-18T00:19:26.000Z,994.85
2024-01-18T00:20:27.000Z,994.84
2024-01-18T00:21:27.000Z,994.84
2024-01-18T00:22:27.000Z,994.86
2024-01-18T00:23:27.000Z,994.88
2024-01-18T00:24:28.000Z,994.93
2024-01-18T00:25:28.000Z,994.88
2024-01-18T00:26:28.000Z,994.9
2024-01-18T00:27:28.000Z,994.91
2024-01-18T00:28:29.000Z,994.95
2024-01-18T00:29:29.000Z,994.91
2024-01-18T00:30:29.000Z,994.96
2024-01-18T00:31:29.000Z,994.92
2024-01-18T00:32:30.000Z,994.91
2024-01-18T00:33:30.000Z,994.97
2024-01-18T00:34:30.000Z,994.93
2024-01-18T00:35:30.000Z,994.99
2024-01-18T00:36:31.000Z,994.97
2024-01-18T00:37:31.000Z,995.05
2024-01-18T00:38:31.000Z,995.08
2024-01-18T00:39:31.000Z,995.07
2024-01-18T00:40:32.000Z,995.09
2024-01-18T00:41:32.000Z,995.13
2024-01-18T00:42:32.000Z,995.09
2024-01-18T00:43:33.000Z,995.21
2024-01-18T00:44:33.000Z,995.2
2024-01-18T00:45:33.000Z,995.16
2024-01-18T00:46:33.000Z,995.26
2024-01-18T00:47:34.000Z,995.27
2024-01-18T00:48:34.000Z,995.28
2024-01-18T00:49:34.000Z,995.29
2024-01-18T00:50:34.000Z,995.36
2024-01-18T00:51:35.000Z,995.4
2024-01-18T00:52:35.000Z,995.43
2024-01-18T00:53:35.000Z,995.47
2024-01-18T00:54:35.000Z,995.44
2024-01-18T00:55:36.000Z,995.54
2024-01-18T00:56:36.000Z,995.53
2024-01-18T00:57:36.000Z,995.57
2024-01-18T00:58:36.000Z,995.56
2024-01-18T00:59:37.000Z,995.54
2024-01-18T01:00:37.000Z,995.54
2024-01-18T01:01:37.000Z,995.62
2024-01-18T01:02:37.000Z,995.63
2024-01-18T01:03:38.000Z,995.62
2024-01-18T01:04:38.000Z,995.63
2024-01-18T01:05:38.000Z,995.7
2024-01-18T01:06:38.000Z,995.67
2024-01-18T01:07:39.000Z,995.7
2024-01-18T01:08:39.000Z,995.74
2024-01-18T01:09:39.000Z,995.7
2024-01-18T01:10:39.000Z,995.78
2024-01-18T01:11:40.000Z,995.8
2024-01-18T01:12:40.000Z,995.81
2024-01-18T01:13:40.000Z,995.9
2024-01-18T01:14:40.000Z,995.94
2024-01-18T01:15:41.000Z,995.91
2024-01-18T01:16:41.000Z,995.95
2024-01-18T01:17:41.000Z,995.91
2024-01-18T01:18:42.000Z,995.97
2024-01-18T01:19:42.000Z,995.99
2024-01-18T01:20:42.000Z,996.03
2024-01-18T01:21:42.000Z,996.04
2024-01-18T01:22:43.000Z,995.97
2024-01-18T01:23:43.000Z,996.04
2024-01-18T01:24:43.000Z,996.1
2024-01-18T01:25:43.000Z,996.06
2024-01-18T01:26:44.000Z,996.06
2024-01-18T01:27:44.000Z,996.09
2024-01-18T01:28:44.000Z,996.13
2024-01-18T01:29:44.000Z,996.15
2024-01-18T01:30:45.000Z,996.12
2024-01-18T01:31:45.000Z,996.13
2024-01-18T01:32:45.000Z,996.16
2024-01-18T01:33:45.000Z,996.19
2024-01-18T01:34:46.000Z,996.2
2024-01-18T01:35:46.000Z,996.21
2024-01-18T01:36:46.000Z,996.24
2024-01-18T01:37:46.000Z,996.29
2024-01-18T01:38:47.000Z,996.29
2024-01-18T01:39:47.000Z,996.29
2024-01-18T01:40:47.000Z,996.28
2024-01-18T01:41:47.000Z,996.34
2024-01-18T01:42:48.000Z,996.32
2024-01-18T01:43:48.000Z,996.31
2024-01-18T01:44:48.000Z,996.39
2024-01-18T01:45:48.000Z,996.47
2024-01-18T01:46:49.000Z,996.45
2024-01-18T01:47:49.000Z,996.41
2024-01-18T01:48:49.000Z,996.47
2024-01-18T01:49:49.000Z,996.48
2024-01-18T01:50:50.000Z,996.55
2024-01-18T01:51:50.000Z,996.5
2024-01-18T01:52:50.000Z,996.61
2024-01-18T01:53:50.000Z,996.63
2024-01-18T01:54:51.000Z,996.7
2024-01-18T01:55:51.000Z,996.67
2024-01-18T01:56:51.000Z,996.75
2024-01-18T01:57:51.000Z,996.74
2024-01-18T01:58:52.000Z,996.75
2024-01-18T01:59:52.000Z,996.77
2024-01-18T02:00:52.000Z,996.83
2024-01-18T02:01:52.000Z,996.87
2024-01-18T02:02:53.000Z,996.92
2024-01-18T02:03:53.000Z,996.9
2024-01-18T02:04:53.000Z,996.96
2024-01-18T02:05:53.000Z,996.95
2024-01-18T02:06:54.000Z,996.91
2024-01-18T02:07:54.000Z,996.89
2024-01-18T02:08:54.000Z,996.98
2024-01-18T02:09:54.000Z,996.99
2024-01-18T02:10:55.000Z,997.03
2024-01-18T02:11:55.000Z,997.03
2024-01-18T02:12:55.000Z,997.04
2024-01-18T02:13:55.000Z,997.1
2024-01-18T02:14:56.000Z,997.11
2024-01-18T02:15:56.000Z,997.13
2024-01-18T02:16:56.000Z,997.12
2024-01-18T02:17:56.000Z,997.13
2024-01-18T02:18:57.000Z,997.1
2024-01-18T02:19:57.000Z,997.07
2024-01-18T02:20:57.000Z,997.04
2024-01-18T02:21:57.000Z,997.04
2024-01-18T02:22:58.000Z,997.01
2024-01-18T02:23:58.000Z,997.04
2024-01-18T02:24:58.000Z,997.02
2024-01-18T02:25:58.000Z,997.02
2024-01-18T02:26:59.000Z,997.1
2024-01-18T02:27:59.000Z,997.07
2024-01-18T02:28:59.000Z,997.1
2024-01-18T02:29:59.000Z,997.09
2024-01-18T02:31:00.000Z,997.13
2024-01-18T02:32:00.000Z,997.15
2024-01-18T02:33:00.000Z,997.16
2024-01-18T02:34:00.000Z,997.15
2024-01-18T02:35:01.000Z,997.16
2024-01-18T02:36:01.000Z,997.17
2024-01-18T02:37:01.000Z,997.18
2024-01-18T02:38:02.000Z,997.17
2024-01-18T02:39:02.000Z,997.19
2024-01-18T02:40:02.000Z,997.28
2024-01-18T02:41:02.000Z,997.25
2024-01-18T02:42:03.000Z,997.25
2024-01-18T02:43:03.000Z,997.27
2024-01-18T02:44:03.000Z,997.3
2024-01-18T02:45:03.000Z,997.3
2024-01-18T02:46:04.000Z,997.37
2024-01-18T02:47:04.000Z,997.33
2024-01-18T02:48:04.000Z,997.38
2024-01-18T02:49:04.000Z,997.33
2024-01-18T02:50:05.000Z,997.32
2024-01-18T02:51:05.000Z,997.31
2024-01-18T02:52:05.000Z,997.32
2024-01-18T02:53:06.000Z,997.26
2024-01-18T02:54:06.000Z,997.27
2024-01-18T02:55:06.000Z,997.26
2024-01-18T02:56:06.000Z,997.32
2024-01-18T02:57:07.000Z,997.24
2024-01-18T02:58:07.000Z,997.3
2024-01-18T02:59:07.000Z,997.3
2024-01-18T03:00:07.000Z,997.38
2024-01-18T03:01:08.000Z,997.31
2024-01-18T03:02:08.000Z,997.42
2024-01-18T03:03:08.000Z,997.36
2024-01-18T03:04:08.000Z,997.39
2024-01-18T03:05:09.000Z,997.33
2024-01-18T03:06:09.000Z,997.43
2024-01-18T03:07:09.000Z,997.41
2024-01-18T03:08:09.000Z,997.45
2024-01-18T03:09:10.000Z,997.43
2024-01-18T03:10:10.000Z,997.48
2024-01-18T03:11:10.000Z,997.48
2024-01-18T03:12:10.000Z,997.51
2024-01-18T03:13:11.000Z,997.48
2024-01-18T03:14:11.000Z,997.51
2024-01-18T03:15:11.000Z,997.46
2024-01-18T03:16:11.000Z,997.47
2024-01-18T03:17:12.000Z,997.46
2024-01-18T03:18:12.000Z,997.48
2024-01-18T03:19:12.000Z,997.41
2024-01-18T03:20:12.000Z,997.46
2024-01-18T03:21:13.000Z,997.48
2024-01-18T03:22:13.000Z,997.49
2024-01-18T03:23:13.000Z,997.47
2024-01-18T03:24:13.000Z,997.46
2024-01-18T03:25:14.000Z,997.48
2024-01-18T03:26:14.000Z,997.52
2024-01-18T03:27:14.000Z,997.48
2024-01-18T03:28:14.000Z,997.52
2024-01-18T03:29:15.000Z,997.58
2024-01-18T03:30:15.000Z,997.62
2024-01-18T03:31:15.000Z,997.64
2024-01-18T03:32:16.000Z,997.6
2024-01-18T03:33:16.000Z,997.68
2024-01-18T03:34:16.000Z,997.66
2024-01-18T03:35:16.000Z,997.73
2024-01-18T03:36:17.000Z,997.73
2024-01-18T03:37:17.000Z,997.76
2024-01-18T03:38:17.000Z,997.71
2024-01-18T03:39:17.000Z,997.76
2024-01-18T03:40:18.000Z,997.74
2024-01-18T03:41:18.000Z,997.76
2024-01-18T03:42:18.000Z,997.69
2024-01-18T03:43:18.000Z,997.73
2024-01-18T03:44:19.000Z,997.76
2024-01-18T03:45:19.000Z,997.74
2024-01-18T03:46:19.000Z,997.79
2024-01-18T03:47:19.000Z,997.82
2024-01-18T03:48:20.000Z,997.83
2024-01-18T03:49:20.000Z,997.85
2024-01-18T03:50:20.000Z,997.83
2024-01-18T03:51:20.000Z,997.85
2024-01-18T03:52:21.000Z,997.82
2024-01-18T03:53:21.000Z,997.84
2024-01-18T03:54:21.000Z,997.83
2024-01-18T03:55:22.000Z,997.84
2024-01-18T03:56:22.000Z,997.83
2024-01-18T03:57:22.000Z,997.83
2024-01-18T03:58:22.000Z,997.77
2024-01-18T03:59:23.000Z,997.81
2024-01-18T04:00:23.000Z,997.83
2024-01-18T04:01:23.000Z,997.86
2024-01-18T04:02:23.000Z,997.89
2024-01-18T04:03:24.000Z,997.87
2024-01-18T04:04:24.000Z,997.81
2024-01-18T04:05:24.000Z,997.74
2024-01-18T04:06:24.000Z,997.79
2024-01-18T04:07:25.000Z,997.82
2024-01-18T04:08:25.000Z,997.87
2024-01-18T04:09:25.000Z,997.89
2024-01-18T04:10:25.000Z,997.85
2024-01-18T04:11:26.000Z,997.86
2024-01-18T04:12:26.000Z,997.8
2024-01-18T04:13:26.000Z,997.77
2024-01-18T04:14:26.000Z,997.71
2024-01-18T04:15:27.000Z,997.7
2024-01-18T04:16:27.000Z,997.69
2024-01-18T04:17:27.000Z,997.74
2024-01-18T04:18:28.000Z,997.61
2024-01-18T04:19:28.000Z,997.58
2024-01-18T04:20:28.000Z,997.52
2024-01-18T04:21:28.000Z,997.53
2024-01-18T04:22:29.000Z,997.6
2024-01-18T04:23:29.000Z,997.69
2024-01-18T04:24:29.000Z,997.75
2024-01-18T04:25:29.000Z,997.79
2024-01-18T04:26:29.000Z,997.81
2024-01-18T04:27:30.000Z,997.86
2024-01-18T04:28:30.000Z,997.93
2024-01-18T04:29:30.000Z,998.07
2024-01-18T04:30:31.000Z,998.21
2024-01-18T04:31:31.000Z,998.29
2024-01-18T04:32:31.000Z,998.26
2024-01-18T04:33:31.000Z,998.17
2024-01-18T04:34:32.000Z,998.19
2024-01-18T04:35:32.000Z,998.29
2024-01-18T04:36:32.000Z,998.27
2024-01-18T04:37:32.000Z,998.2
2024-01-18T04:38:33.000Z,998.23
2024-01-18T04:39:33.000Z,998.26
2024-01-18T04:40:33.000Z,998.18
2024-01-18T04:41:33.000Z,998.26
2024-01-18T04:42:34.000Z,998.28
2024-01-18T04:43:34.000Z,998.34
2024-01-18T04:44:34.000Z,998.43
2024-01-18T04:45:34.000Z,998.45
2024-01-18T04:46:35.000Z,998.44
2024-01-18T04:47:35.000Z,998.51
2024-01-18T04:48:35.000Z,998.5
2024-01-18T04:49:35.000Z,998.53
2024-01-18T04:50:36.000Z,998.46
2024-01-18T04:51:36.000Z,998.47
2024-01-18T04:52:36.000Z,998.41
2024-01-18T04:53:37.000Z,998.47
2024-01-18T04:54:37.000Z,998.44
2024-01-18T04:55:37.000Z,998.48
2024-01-18T04:56:37.000Z,998.45
2024-01-18T04:57:38.000Z,998.44
2024-01-18T04:58:38.000Z,998.31
2024-01-18T04:59:38.000Z,998.32
2024-01-18T05:00:38.000Z,998.3
2024-01-18T05:01:39.000Z,998.31
2024-01-18T05:02:39.000Z,998.32
2024-01-18T05:03:39.000Z,998.43
2024-01-18T05:04:39.000Z,998.5
2024-01-18T05:05:40.000Z,998.47
2024-01-18T05:06:40.000Z,998.44
2024-01-18T05:07:40.000Z,998.5
2024-01-18T05:08:40.000Z,998.49
2024-01-18T05:09:41.000Z,998.48
2024-01-18T05:10:41.000Z,998.47
2024-01-18T05:11:41.000Z,998.52
2024-01-18T05:12:41.000Z,998.57
2024-01-18T05:13:41.000Z,998.52
2024-01-18T05:14:42.000Z,998.51
2024-01-18T05:15:42.000Z,998.52
2024-01-18T05:16:42.000Z,998.47
2024-01-18T05:17:43.000Z,998.43
2024-01-18T05:18:43.000Z,998.41
2024-01-18T05:19:43.000Z,998.49
2024-01-18T05:20:43.000Z,998.42
2024-01-18T05:21:44.000Z,998.43
2024-01-18T05:22:44.000Z,998.45
2024-01-18T05:23:44.000Z,998.43
2024-01-18T05:24:44.000Z,998.38
2024-01-18T05:25:45.000Z,998.47
2024-01-18T05:26:45.000Z,998.6
2024-01-18T05:27:45.000Z,998.69
2024-01-18T05:28:45.000Z,998.82
2024-01-18T05:29:46.000Z,998.89
2024-01-18T05:30:46.000Z,998.96
2024-01-18T05:31:46.000Z,999.0
2024-01-18T05:32:46.000Z,999.08
2024-01-18T05:33:47.000Z,999.1
2024-01-18T05:34:47.000Z,999.13
2024-01-18T05:35:47.000Z,999.13
2024-01-18T05:36:48.000Z,999.09
2024-01-18T05:37:48.000Z,999.01
2024-01-18T05:38:48.000Z,999.0
2024-01-18T05:39:48.000Z,998.95
2024-01-18T05:40:49.000Z,998.96
2024-01-18T05:41:49.000Z,998.99
2024-01-18T05:42:49.000Z,999.01
2024-01-18T05:43:49.000Z,998.99
2024-01-18T05:44:50.000Z,999.06
2024-01-18T05:45:50.000Z,999.02
2024-01-18T05:46:50.000Z,999.0
2024-01-18T05:47:50.000Z,998.94
2024-01-18T05:48:51.000Z,998.92
2024-01-18T05:49:51.000Z,998.86
2024-01-18T05:50:51.000Z,998.82
2024-01-18T05:51:51.000Z,998.86
2024-01-18T05:52:52.000Z,998.8
2024-01-18T05:53:52.000Z,998.78
2024-01-18T05:54:52.000Z,998.71
2024-01-18T05:55:52.000Z,998.76
2024-01-18T05:56:53.000Z,998.78
2024-01-18T05:57:53.000Z,998.79
2024-01-18T05:58:53.000Z,998.75
2024-01-18T05:59:53.000Z,998.76
2024-01-18T06:00:54.000Z,998.81
2024-01-18T06:01:54.000Z,998.77
2024-01-18T06:02:54.000Z,998.86
2024-01-18T06:03:55.000Z,998.9
2024-01-18T06:04:55.000Z,998.97
2024-01-18T06:05:55.000Z,998.96
2024-01-18T06:06:55.000Z,998.97
2024-01-18T06:07:56.000Z,998.97
2024-01-18T06:08:56.000Z,999.01
2024-01-18T06:09:56.000Z,999.03
2024-01-18T06:10:56.000Z,999.1
2024-01-18T06:11:56.000Z,999.22
2024-01-18T06:12:57.000Z,999.29
2024-01-18T06:13:57.000Z,999.25
2024-01-18T06:14:57.000Z,999.21
2024-01-18T06:15:58.000Z,999.21
2024-01-18T06:16:58.000Z,999.21
2024-01-18T06:17:58.000Z,999.25
2024-01-18T06:18:58.000Z,999.23
2024-01-18T06:19:59.000Z,999.19
2024-01-18T06:20:59.000Z,999.2
2024-01-18T06:21:59.000Z,999.25
2024-01-18T06:22:59.000Z,999.24
2024-01-18T06:24:00.000Z,999.23
2024-01-18T06:25:00.000Z,999.18
2024-01-18T06:26:00.000Z,999.17
2024-01-18T06:27:00.000Z,999.17
2024-01-18T06:28:01.000Z,999.19
2024-01-18T06:29:01.000Z,999.1
2024-01-18T06:30:01.000Z,999.12
2024-01-18T06:31:01.000Z,999.05
2024-01-18T06:32:02.000Z,999.09
2024-01-18T06:33:02.000Z,999.08
2024-01-18T06:34:02.000Z,999.16
2024-01-18T06:35:02.000Z,999.15
2024-01-18T06:36:03.000Z,999.21
2024-01-18T06:37:03.000Z,999.18
2024-01-18T06:38:03.000Z,999.25
2024-01-18T06:39:03.000Z,999.3
2024-01-18T06:40:04.000Z,999.3
2024-01-18T06:41:04.000Z,999.34
2024-01-18T06:42:04.000Z,999.32
2024-01-18T06:43:04.000Z,999.34
2024-01-18T06:44:05.000Z,999.21
2024-01-18T06:45:05.000Z,999.24
2024-01-18T06:46:05.000Z,999.27
2024-01-18T06:47:05.000Z,999.26
2024-01-18T06:48:06.000Z,999.31
2024-01-18T06:49:06.000Z,999.28
2024-01-18T06:50:06.000Z,999.28
2024-01-18T06:51:07.000Z,999.22
2024-01-18T06:52:07.000Z,999.29
2024-01-18T06:53:07.000Z,999.31
2024-01-18T06:54:07.000Z,999.26
2024-01-18T06:55:08.000Z,999.21
2024-01-18T06:56:08.000Z,999.24
2024-01-18T06:57:08.000Z,999.31
2024-01-18T06:58:08.000Z,999.37
2024-01-18T06:59:09.000Z,999.42
2024-01-18T07:00:09.000Z,999.51
2024-01-18T07:01:09.000Z,999.54
2024-01-18T07:02:09.000Z,999.57
2024-01-18T07:03:10.000Z,999.55
2024-01-18T07:04:10.000Z,999.49
2024-01-18T07:05:10.000Z,999.56
2024-01-18T07:06:11.000Z,999.57
2024-01-18T07:07:11.000Z,999.57
2024-01-18T07:08:11.000Z,999.69
2024-01-18T07:09:11.000Z,999.68
2024-01-18T07:10:12.000Z,999.71
2024-01-18T07:11:12.000Z,999.59
2024-01-18T07:12:12.000Z,999.61
2024-01-18T07:13:12.000Z,999.61
2024-01-18T07:14:13.000Z,999.63
2024-01-18T07:15:13.000Z,999.58
2024-01-18T07:16:13.000Z,999.69
2024-01-18T07:17:13.000Z,999.61
2024-01-18T07:18:14.000Z,999.65
2024-01-18T07:19:14.000Z,999.6
2024-01-18T07:20:14.000Z,999.63
2024-01-18T07:21:14.000Z,999.6
2024-01-18T07:22:15.000Z,999.66
2024-01-18T07:23:15.000Z,999.58
2024-01-18T07:24:15.000Z,999.65
2024-01-18T07:25:15.000Z,999.56
2024-01-18T07:26:16.000Z,999.6
2024-01-18T07:27:16.000Z,999.57
2024-01-18T07:28:16.000Z,999.61
2024-01-18T07:29:16.000Z,999.58
2024-01-18T07:30:17.000Z,999.56
2024-01-18T07:31:17.000Z,999.62
2024-01-18T07:32:17.000Z,999.63
2024-01-18T07:33:17.000Z,999.55
2024-01-18T07:34:18.000Z,999.53
2024-01-18T07:35:18.000Z,999.52
2024-01-18T07:36:18.000Z,999.61
2024-01-18T07:37:18.000Z,999.62
2024-01-18T07:38:19.000Z,999.63
2024-01-18T07:39:19.000Z,999.71
2024-01-18T07:40:19.000Z,999.69
2024-01-18T07:41:20.000Z,999.68
2024-01-18T07:42:20.000Z,999.68
2024-01-18T07:43:20.000Z,999.62
2024-01-18T07:44:20.000Z,999.66
2024-01-18T07:45:21.000Z,999.63
2024-01-18T07:46:21.000Z,999.61
2024-01-18T07:47:21.000Z,999.63
2024-01-18T07:48:21.000Z,999.76
2024-01-18T07:49:22.000Z,999.67
2024-01-18T07:50:22.000Z,999.74
2024-01-18T07:51:22.000Z,999.72
2024-01-18T07:52:22.000Z,999.71
2024-01-18T07:53:23.000Z,999.68
2024-01-18T07:54:23.000Z,999.76
2024-01-18T07:55:23.000Z,999.76
2024-01-18T07:56:23.000Z,999.75
2024-01-18T07:57:24.000Z,999.83
2024-01-18T07:58:24.000Z,999.83
2024-01-18T07:59:24.000Z,999.86
2024-01-18T08:00:24.000Z,999.87
2024-01-18T08:01:25.000Z,999.9
2024-01-18T08:02:25.000Z,999.91
2024-01-18T08:03:25.000Z,999.86
2024-01-18T08:04:25.000Z,999.75
2024-01-18T08:05:26.000Z,999.75
2024-01-18T08:06:26.000Z,999.75
2024-01-18T08:07:26.000Z,999.8
2024-01-18T08:08:26.000Z,999.87
2024-01-18T08:09:27.000Z,999.89
2024-01-18T08:10:27.000Z,999.92
2024-01-18T08:11:27.000Z,999.9
2024-01-18T08:12:27.000Z,999.96
2024-01-18T08:13:28.000Z,999.86
2024-01-18T08:14:28.000Z,999.82
2024-01-18T08:15:28.000Z,999.81
2024-01-18T08:16:28.000Z,999.75
2024-01-18T08:17:29.000Z,999.78
2024-01-18T08:18:29.000Z,999.78
2024-01-18T08:19:29.000Z,999.79
2024-01-18T08:20:29.000Z,999.87
2024-01-18T08:21:30.000Z,999.94
2024-01-18T08:22:30.000Z,1000.0
2024-01-18T08:23:30.000Z,1000.04
2024-01-18T08:24:30.000Z,1000.04
2024-01-18T08:25:31.000Z,1000.08
2024-01-18T08:26:31.000Z,1000.09
2024-01-18T08:27:31.000Z,1000.08
2024-01-18T08:28:31.000Z,1000.15
2024-01-18T08:29:32.000Z,1000.19
2024-01-18T08:30:32.000Z,1000.23
2024-01-18T08:31:32.000Z,1000.24
2024-01-18T08:32:32.000Z,1000.25
2024-01-18T08:33:33.000Z,1000.3
2024-01-18T08:34:33.000Z,1000.34
2024-01-18T08:35:33.000Z,1000.31
2024-01-18T08:36:34.000Z,1000.34
2024-01-18T08:37:34.000Z,1000.36
2024-01-18T08:38:34.000Z,1000.41
2024-01-18T08:39:34.000Z,1000.36
2024-01-18T08:40:35.000Z,1000.38
2024-01-18T08:41:35.000Z,1000.45
2024-01-18T08:42:35.000Z,1000.46
2024-01-18T08:43:35.000Z,1000.51
2024-01-18T08:44:36.000Z,1000.53
2024-01-18T08:45:36.000Z,1000.54
2024-01-18T08:46:36.000Z,1000.58
2024-01-18T08:47:36.000Z,1000.58
2024-01-18T08:48:37.000Z,1000.66
2024-01-18T08:49:37.000Z,1000.65
2024-01-18T08:50:37.000Z,1000.66
2024-01-18T08:51:37.000Z,1000.66
2024-01-18T08:52:38.000Z,1000.66
2024-01-18T08:53:38.000Z,1000.63
2024-01-18T08:54:38.000Z,1000.65
2024-01-18T08:55:38.000Z,1000.64
2024-01-18T08:56:39.000Z,1000.62
2024-01-18T08:57:39.000Z,1000.55
2024-01-18T08:58:39.000Z,1000.59
2024-01-18T08:59:39.000Z,1000.67
2024-01-18T09:00:40.000Z,1000.65
2024-01-18T09:01:40.000Z,1000.66
2024-01-18T09:02:40.000Z,1000.67
2024-01-18T09:03:40.000Z,1000.72
2024-01-18T09:04:41.000Z,1000.67
2024-01-18T09:05:41.000Z,1000.65
2024-01-18T09:06:41.000Z,1000.7
2024-01-18T09:07:41.000Z,1000.7
2024-01-18T09:08:42.000Z,1000.66
2024-01-18T09:09:42.000Z,1000.69
2024-01-18T09:10:42.000Z,1000.72
2024-01-18T09:11:42.000Z,1000.71
2024-01-18T09:12:43.000Z,1000.72
2024-01-18T09:13:43.000Z,1000.78
2024-01-18T09:14:43.000Z,1000.76
2024-01-18T09:15:43.000Z,1000.82
2024-01-18T09:16:44.000Z,1000.81
2024-01-18T09:17:44.000Z,1000.85
2024-01-18T09:18:44.000Z,1000.82
2024-01-18T09:19:44.000Z,1000.9
2024-01-18T09:20:45.000Z,1000.91
2024-01-18T09:21:45.000Z,1000.9
2024-01-18T09:22:45.000Z,1000.88
2024-01-18T09:23:45.000Z,1000.95
2024-01-18T09:24:46.000Z,1001.01
2024-01-18T09:25:46.000Z,1001.01
2024-01-18T09:26:46.000Z,1001.0
2024-01-18T09:27:46.000Z,1001.07
2024-01-18T09:28:47.000Z,1001.05
2024-01-18T09:29:47.000Z,1001.05
2024-01-18T09:30:47.000Z,1001.03
2024-01-18T09:31:48.000Z,1001.08
2024-01-18T09:32:48.000Z,1001.07
2024-01-18T09:33:48.000Z,1001.04
2024-01-18T09:34:48.000Z,1001.01
2024-01-18T09:35:49.000Z,1001.07
2024-01-18T09:36:49.000Z,1001.13
2024-01-18T09:37:49.000Z,1001.15
2024-01-18T09:38:49.000Z,1001.13
2024-01-18T09:39:50.000Z,1001.14
2024-01-18T09:40:50.000Z,1001.21
2024-01-18T09:41:50.000Z,1001.23
2024-01-18T09:42:50.000Z,1001.21
2024-01-18T09:43:51.000Z,1001.24
2024-01-18T09:44:51.000Z,1001.27
2024-01-18T09:45:51.000Z,1001.24
2024-01-18T09:46:51.000Z,1001.26
2024-01-18T09:47:52.000Z,1001.27
2024-01-18T09:48:52.000Z,1001.27
2024-01-18T09:49:52.000Z,1001.26
2024-01-18T09:50:53.000Z,1001.19
2024-01-18T09:51:53.000Z,1001.21
2024-01-18T09:52:53.000Z,1001.21
2024-01-18T09:53:53.000Z,1001.16
2024-01-18T09:54:54.000Z,1001.14
2024-01-18T09:55:54.000Z,1001.13
2024-01-18T09:56:54.000Z,1001.12
2024-01-18T09:57:54.000Z,1001.14
2024-01-18T09:58:55.000Z,1001.18
2024-01-18T09:59:55.000Z,1001.13
2024-01-18T10:00:55.000Z,1001.19
2024-01-18T10:01:56.000Z,1001.21
2024-01-18T10:02:56.000Z,1001.25
2024-01-18T10:03:56.000Z,1001.23
2024-01-18T10:04:56.000Z,1001.28
2024-01-18T10:05:56.000Z,1001.31
2024-01-18T10:06:57.000Z,1001.33
2024-01-18T10:07:57.000Z,1001.35
2024-01-18T10:08:57.000Z,1001.36
2024-01-18T10:09:57.000Z,1001.39
2024-01-18T10:10:58.000Z,1001.41
2024-01-18T10:11:58.000Z,1001.48
2024-01-18T10:12:58.000Z,1001.5
2024-01-18T10:13:58.000Z,1001.43
2024-01-18T10:14:59.000Z,1001.51
2024-01-18T10:15:59.000Z,1001.47
2024-01-18T10:16:59.000Z,1001.49
2024-01-18T10:17:59.000Z,1001.49
2024-01-18T10:19:00.000Z,1001.46
2024-01-18T10:20:00.000Z,1001.47
2024-01-18T10:21:00.000Z,1001.46
2024-01-18T10:22:00.000Z,1001.43
2024-01-18T10:23:01.000Z,1001.43
2024-01-18T10:24:01.000Z,1001.39
2024-01-18T10:25:01.000Z,1001.38
2024-01-18T10:26:02.000Z,1001.39
2024-01-18T10:27:02.000Z,1001.37
2024-01-18T10:28:02.000Z,1001.36
2024-01-18T10:29:02.000Z,1001.35
2024-01-18T10:30:03.000Z,1001.42
2024-01-18T10:31:03.000Z,1001.38
2024-01-18T10:32:03.000Z,1001.41
2024-01-18T10:33:03.000Z,1001.42
2024-01-18T10:34:04.000Z,1001.47
2024-01-18T10:35:04.000Z,1001.48
2024-01-18T10:36:04.000Z,1001.53
2024-01-18T10:37:04.000Z,1001.51
2024-01-18T10:38:05.000Z,1001.49
2024-01-18T10:39:05.000Z,1001.5
2024-01-18T10:40:05.000Z,1001.51
2024-01-18T10:41:05.000Z,1001.51
2024-01-18T10:42:06.000Z,1001.52
2024-01-18T10:43:06.000Z,1001.5
2024-01-18T10:44:06.000Z,1001.54
2024-01-18T10:45:06.000Z,1001.48
2024-01-18T10:46:07.000Z,1001.48
2024-01-18T10:47:07.000Z,1001.47
2024-01-18T10:48:07.000Z,1001.44
2024-01-18T10:49:07.000Z,1001.4
2024-01-18T10:50:08.000Z,1001.46
2024-01-18T10:51:08.000Z,1001.44
2024-01-18T10:52:08.000Z,1001.44
2024-01-18T10:53:08.000Z,1001.48
2024-01-18T10:54:09.000Z,1001.52
2024-01-18T10:55:09.000Z,1001.53
2024-01-18T10:56:09.000Z,1001.51
2024-01-18T10:57:09.000Z,1001.46
2024-01-18T10:58:10.000Z,1001.52
2024-01-18T10:59:10.000Z,1001.49
2024-01-18T11:00:10.000Z,1001.5
2024-01-18T11:01:10.000Z,1001.43
2024-01-18T11:02:11.000Z,1001.45
2024-01-18T11:03:11.000Z,1001.47
2024-01-18T11:04:11.000Z,1001.46
2024-01-18T11:05:12.000Z,1001.46
2024-01-18T11:06:12.000Z,1001.46
2024-01-18T11:07:12.000Z,1001.45
2024-01-18T11:08:12.000Z,1001.53
2024-01-18T11:09:13.000Z,1001.58
2024-01-18T11:10:13.000Z,1001.63
2024-01-18T11:11:13.000Z,1001.65
2024-01-18T11:12:13.000Z,1001.67
2024-01-18T11:13:14.000Z,1001.62
2024-01-18T11:14:14.000Z,1001.67
2024-01-18T11:15:14.000Z,1001.64
2024-01-18T11:16:14.000Z,1001.68
2024-01-18T11:17:15.000Z,1001.71
2024-01-18T11:18:15.000Z,1001.73
2024-01-18T11:19:15.000Z,1001.78
2024-01-18T11:20:15.000Z,1001.81
2024-01-18T11:21:16.000Z,1001.83
2024-01-18T11:22:16.000Z,1001.85
2024-01-18T11:23:16.000Z,1001.8
2024-01-18T11:24:17.000Z,1001.84
2024-01-18T11:25:17.000Z,1001.8
2024-01-18T11:26:17.000Z,1001.86
2024-01-18T11:27:17.000Z,1001.84
2024-01-18T11:28:17.000Z,1001.85
2024-01-18T11:29:18.000Z,1001.8
2024-01-18T11:30:18.000Z,1001.83
2024-01-18T11:31:18.000Z,1001.82
2024-01-18T11:32:19.000Z,1001.8
2024-01-18T11:33:19.000Z,1001.81
2024-01-18T11:34:19.000Z,1001.84
2024-01-18T11:35:19.000Z,1001.82
2024-01-18T11:36:20.000Z,1001.88
2024-01-18T11:37:20.000Z,1001.84
2024-01-18T11:38:20.000Z,1001.85
2024-01-18T11:39:20.000Z,1001.84
2024-01-18T11:40:21.000Z,1001.87
2024-01-18T11:41:21.000Z,1001.89
2024-01-18T11:42:21.000Z,1001.87
2024-01-18T11:43:21.000Z,1001.87
2024-01-18T11:44:22.000Z,1001.86
2024-01-18T11:45:22.000Z,1001.85
2024-01-18T11:46:22.000Z,1001.88
2024-01-18T11:47:22.000Z,1001.86
2024-01-18T11:48:23.000Z,1001.92
2024-01-18T11:49:23.000Z,1001.89
2024-01-18T11:50:23.000Z,1001.96
2024-01-18T11:51:23.000Z,1001.94
2024-01-18T11:52:24.000Z,1001.97
2024-01-18T11:53:24.000Z,1001.99
2024-01-18T11:54:24.000Z,1002.01
2024-01-18T11:55:24.000Z,1001.96
2024-01-18T11:56:25.000Z,1002.07
2024-01-18T11:57:25.000Z,1001.97
2024-01-18T11:58:25.000Z,1002.03
2024-01-18T11:59:25.000Z,1002.09
2024-01-18T12:00:26.000Z,1002.05
2024-01-18T12:01:26.000Z,1002.08
2024-01-18T12:02:26.000Z,1002.13
2024-01-18T12:03:27.000Z,1002.11
2024-01-18T12:04:27.000Z,1002.16
2024-01-18T12:05:27.000Z,1002.11
2024-01-18T12:06:27.000Z,1002.15
2024-01-18T12:07:28.000Z,1002.17
2024-01-18T12:08:28.000Z,1002.23
2024-01-18T12:09:28.000Z,1002.25
2024-01-18T12:10:28.000Z,1002.19
2024-01-18T12:11:29.000Z,1002.2
2024-01-18T12:12:29.000Z,1002.22
2024-01-18T12:13:29.000Z,1002.22
2024-01-18T12:14:29.000Z,1002.22
2024-01-18T12:15:30.000Z,1002.19
2024-01-18T12:16:30.000Z,1002.14
2024-01-18T12:17:30.000Z,1002.14
2024-01-18T12:18:30.000Z,1002.17
2024-01-18T12:19:31.000Z,1002.17
2024-01-18T12:20:31.000Z,1002.21
2024-01-18T12:21:31.000Z,1002.18
2024-01-18T12:22:31.000Z,1002.2
2024-01-18T12:23:32.000Z,1002.2
2024-01-18T12:24:32.000Z,1002.28
2024-01-18T12:25:32.000Z,1002.28
2024-01-18T12:26:32.000Z,1002.39